sensor_id;sensor_type;location;lat;lon;timestamp;temperature;humidity
26691;DHT22;14307;51.718;8.938;2023-03-11T00:00:54;-0.40;99.90
26691;DHT22;14307;51.718;8.938;2023-03-11T00:03:21;-0.40;99.90
26691;DHT22;14307;51.718;8.938;2023-03-11T00:05:49;-0.40;99.90
26691;DHT22;14307;51.718;8.938;2023-03-11T00:08:18;-0.40;99.90
26691;DHT22;14307;51.718;8.938;2023-03-11T00:10:47;-0.40;99.90
26691;DHT22;14307;51.718;8.938;2023-03-11T00:13:15;-0.30;99.90
26691;DHT22;14307;51.718;8.938;2023-03-11T00:15:44;-0.40;99.90
26691;DHT22;14307;51.718;8.938;2023-03-11T00:18:11;-0.50;99.90
26691;DHT22;14307;51.718;8.938;2023-03-11T00:20:40;-0.50;99.90
26691;DHT22;14307;51.718;8.938;2023-03-11T00:23:08;-0.50;99.90
26691;DHT22;14307;51.718;8.938;2023-03-11T00:25:37;-0.50;99.90
26691;DHT22;14307;51.718;8.938;2023-03-11T00:28:05;-0.50;99.90
26691;DHT22;14307;51.718;8.938;2023-03-11T00:30:37;-0.40;99.90
26691;DHT22;14307;51.718;8.938;2023-03-11T00:33:04;-0.50;99.90
26691;DHT22;14307;51.718;8.938;2023-03-11T00:35:32;-0.50;99.90
26691;DHT22;14307;51.718;8.938;2023-03-11T00:38:07;-0.60;99.90
26691;DHT22;14307;51.718;8.938;2023-03-11T00:40:34;-0.50;99.90
26691;DHT22;14307;51.718;8.938;2023-03-11T00:43:02;-0.50;99.90
26691;DHT22;14307;51.718;8.938;2023-03-11T00:45:30;-0.50;99.90
26691;DHT22;14307;51.718;8.938;2023-03-11T00:47:57;-0.60;99.90
26691;DHT22;14307;51.718;8.938;2023-03-11T00:50:27;-0.60;99.90
26691;DHT22;14307;51.718;8.938;2023-03-11T00:52:54;-0.60;99.90
26691;DHT22;14307;51.718;8.938;2023-03-11T00:55:24;-0.70;99.90
26691;DHT22;14307;51.718;8.938;2023-03-11T00:57:53;-0.60;99.90
26691;DHT22;14307;51.718;8.938;2023-03-11T01:00:25;-0.60;99.90
26691;DHT22;14307;51.718;8.938;2023-03-11T01:02:53;-0.60;99.90
26691;DHT22;14307;51.718;8.938;2023-03-11T01:05:25;-0.60;99.90
26691;DHT22;14307;51.718;8.938;2023-03-11T01:07:52;-0.60;99.90
26691;DHT22;14307;51.718;8.938;2023-03-11T01:10:19;-0.70;99.90
26691;DHT22;14307;51.718;8.938;2023-03-11T01:12:46;-0.60;99.90
26691;DHT22;14307;51.718;8.938;2023-03-11T01:15:28;-0.60;99.90
26691;DHT22;14307;51.718;8.938;2023-03-11T01:17:57;-0.60;99.90
26691;DHT22;14307;51.718;8.938;2023-03-11T01:20:24;-0.60;99.90
26691;DHT22;14307;51.718;8.938;2023-03-11T01:22:51;-0.60;99.90
26691;DHT22;14307;51.718;8.938;2023-03-11T01:25:20;-0.60;99.90
26691;DHT22;14307;51.718;8.938;2023-03-11T01:27:47;-0.60;99.90
26691;DHT22;14307;51.718;8.938;2023-03-11T01:30:16;-0.70;99.90
26691;DHT22;14307;51.718;8.938;2023-03-11T01:32:44;-0.60;99.90
26691;DHT22;14307;51.718;8.938;2023-03-11T01:35:14;-0.60;99.90
26691;DHT22;14307;51.718;8.938;2023-03-11T01:37:41;-0.60;99.90
26691;DHT22;14307;51.718;8.938;2023-03-11T01:40:34;-0.70;99.90
26691;DHT22;14307;51.718;8.938;2023-03-11T01:43:04;-0.70;99.90
26691;DHT22;14307;51.718;8.938;2023-03-11T01:46:04;-0.60;99.90
26691;DHT22;14307;51.718;8.938;2023-03-11T01:48:29;-0.60;99.90
26691;DHT22;14307;51.718;8.938;2023-03-11T01:50:56;-0.60;99.90
26691;DHT22;14307;51.718;8.938;2023-03-11T01:53:24;-0.60;99.90
26691;DHT22;14307;51.718;8.938;2023-03-11T01:55:52;-0.60;99.90
26691;DHT22;14307;51.718;8.938;2023-03-11T01:58:24;-0.50;99.90
26691;DHT22;14307;51.718;8.938;2023-03-11T02:00:53;-0.60;99.90
26691;DHT22;14307;51.718;8.938;2023-03-11T02:03:25;-0.60;99.90
26691;DHT22;14307;51.718;8.938;2023-03-11T02:05:53;-0.50;99.90
26691;DHT22;14307;51.718;8.938;2023-03-11T02:08:22;-0.50;99.90
26691;DHT22;14307;51.718;8.938;2023-03-11T02:10:51;-0.50;99.90
26691;DHT22;14307;51.718;8.938;2023-03-11T02:13:18;-0.50;99.90
26691;DHT22;14307;51.718;8.938;2023-03-11T02:15:45;-0.50;99.90
26691;DHT22;14307;51.718;8.938;2023-03-11T02:18:13;-0.50;99.90
26691;DHT22;14307;51.718;8.938;2023-03-11T02:21:03;-0.50;99.90
26691;DHT22;14307;51.718;8.938;2023-03-11T02:23:43;-0.50;99.90
26691;DHT22;14307;51.718;8.938;2023-03-11T02:26:34;-0.50;99.90
26691;DHT22;14307;51.718;8.938;2023-03-11T02:29:04;-0.50;99.90
26691;DHT22;14307;51.718;8.938;2023-03-11T02:31:33;-0.50;99.90
26691;DHT22;14307;51.718;8.938;2023-03-11T02:34:04;-0.50;99.90
26691;DHT22;14307;51.718;8.938;2023-03-11T02:36:40;-0.50;99.90
26691;DHT22;14307;51.718;8.938;2023-03-11T02:39:10;-0.50;99.90
26691;DHT22;14307;51.718;8.938;2023-03-11T02:41:42;-0.50;99.90
26691;DHT22;14307;51.718;8.938;2023-03-11T02:44:10;-0.50;99.90
26691;DHT22;14307;51.718;8.938;2023-03-11T02:46:40;-0.50;99.90
26691;DHT22;14307;51.718;8.938;2023-03-11T02:49:10;-0.50;99.90
26691;DHT22;14307;51.718;8.938;2023-03-11T02:51:37;-0.40;99.90
26691;DHT22;14307;51.718;8.938;2023-03-11T02:54:05;-0.50;99.90
26691;DHT22;14307;51.718;8.938;2023-03-11T02:56:34;-0.50;99.90
26691;DHT22;14307;51.718;8.938;2023-03-11T02:59:00;-0.60;99.90
26691;DHT22;14307;51.718;8.938;2023-03-11T03:01:28;-0.50;99.90
26691;DHT22;14307;51.718;8.938;2023-03-11T03:03:55;-0.50;99.90
26691;DHT22;14307;51.718;8.938;2023-03-11T03:06:22;-0.50;99.90
26691;DHT22;14307;51.718;8.938;2023-03-11T03:08:50;-0.50;99.90
26691;DHT22;14307;51.718;8.938;2023-03-11T03:11:17;-0.50;99.90
26691;DHT22;14307;51.718;8.938;2023-03-11T03:13:45;-0.60;99.90
26691;DHT22;14307;51.718;8.938;2023-03-11T03:16:12;-0.50;99.90
26691;DHT22;14307;51.718;8.938;2023-03-11T03:18:39;-0.40;99.90
26691;DHT22;14307;51.718;8.938;2023-03-11T03:21:07;-0.40;99.90
26691;DHT22;14307;51.718;8.938;2023-03-11T03:23:33;-0.40;99.90
26691;DHT22;14307;51.718;8.938;2023-03-11T03:26:06;-0.50;99.90
26691;DHT22;14307;51.718;8.938;2023-03-11T03:28:35;-0.50;99.90
26691;DHT22;14307;51.718;8.938;2023-03-11T03:31:04;-0.60;99.90
26691;DHT22;14307;51.718;8.938;2023-03-11T03:33:31;-0.50;99.90
26691;DHT22;14307;51.718;8.938;2023-03-11T03:35:59;-0.50;99.90
26691;DHT22;14307;51.718;8.938;2023-03-11T03:38:29;-0.50;99.90
26691;DHT22;14307;51.718;8.938;2023-03-11T03:40:56;-0.60;99.90
26691;DHT22;14307;51.718;8.938;2023-03-11T03:43:23;-0.60;99.90
26691;DHT22;14307;51.718;8.938;2023-03-11T03:45:57;-0.50;99.90
26691;DHT22;14307;51.718;8.938;2023-03-11T03:48:28;-0.50;99.90
26691;DHT22;14307;51.718;8.938;2023-03-11T03:50:56;-0.50;99.90
26691;DHT22;14307;51.718;8.938;2023-03-11T03:53:22;-0.50;99.90
26691;DHT22;14307;51.718;8.938;2023-03-11T03:55:49;-0.40;99.90
26691;DHT22;14307;51.718;8.938;2023-03-11T03:58:17;-0.40;99.90
26691;DHT22;14307;51.718;8.938;2023-03-11T04:00:44;-0.50;99.90
26691;DHT22;14307;51.718;8.938;2023-03-11T04:03:11;-0.40;99.90
26691;DHT22;14307;51.718;8.938;2023-03-11T04:05:44;-0.50;99.90
26691;DHT22;14307;51.718;8.938;2023-03-11T04:08:12;-0.50;99.90
26691;DHT22;14307;51.718;8.938;2023-03-11T04:10:41;-0.60;99.90
26691;DHT22;14307;51.718;8.938;2023-03-11T04:13:07;-0.60;99.90
26691;DHT22;14307;51.718;8.938;2023-03-11T04:15:37;-0.60;99.90
26691;DHT22;14307;51.718;8.938;2023-03-11T04:18:04;-0.60;99.90
26691;DHT22;14307;51.718;8.938;2023-03-11T04:20:31;-0.60;99.90
26691;DHT22;14307;51.718;8.938;2023-03-11T04:22:57;-0.50;99.90
26691;DHT22;14307;51.718;8.938;2023-03-11T04:25:24;-0.60;99.90
26691;DHT22;14307;51.718;8.938;2023-03-11T04:27:51;-0.60;99.90
26691;DHT22;14307;51.718;8.938;2023-03-11T04:30:18;-0.60;99.90
26691;DHT22;14307;51.718;8.938;2023-03-11T04:32:47;-0.60;99.90
26691;DHT22;14307;51.718;8.938;2023-03-11T04:35:15;-0.50;99.90
26691;DHT22;14307;51.718;8.938;2023-03-11T04:37:41;-0.50;99.90
26691;DHT22;14307;51.718;8.938;2023-03-11T04:40:10;-0.50;99.90
26691;DHT22;14307;51.718;8.938;2023-03-11T04:42:37;-0.50;99.90
26691;DHT22;14307;51.718;8.938;2023-03-11T04:45:06;-0.50;99.90
26691;DHT22;14307;51.718;8.938;2023-03-11T04:47:33;-0.50;99.90
26691;DHT22;14307;51.718;8.938;2023-03-11T04:50:03;-0.50;99.90
26691;DHT22;14307;51.718;8.938;2023-03-11T04:52:30;-0.50;99.90
26691;DHT22;14307;51.718;8.938;2023-03-11T04:54:57;-0.50;99.90
26691;DHT22;14307;51.718;8.938;2023-03-11T04:57:23;-0.50;99.90
26691;DHT22;14307;51.718;8.938;2023-03-11T04:59:54;-0.40;99.90
26691;DHT22;14307;51.718;8.938;2023-03-11T05:02:21;-0.50;99.90
26691;DHT22;14307;51.718;8.938;2023-03-11T05:04:53;-0.50;99.90
26691;DHT22;14307;51.718;8.938;2023-03-11T05:07:20;-0.50;99.90
26691;DHT22;14307;51.718;8.938;2023-03-11T05:09:47;-0.40;99.90
26691;DHT22;14307;51.718;8.938;2023-03-11T05:12:14;-0.50;99.90
26691;DHT22;14307;51.718;8.938;2023-03-11T05:14:45;-0.50;99.90
26691;DHT22;14307;51.718;8.938;2023-03-11T05:17:12;-0.60;99.90
26691;DHT22;14307;51.718;8.938;2023-03-11T05:19:40;-0.60;99.90
26691;DHT22;14307;51.718;8.938;2023-03-11T05:22:14;-0.60;99.90
26691;DHT22;14307;51.718;8.938;2023-03-11T05:24:41;-0.60;99.90
26691;DHT22;14307;51.718;8.938;2023-03-11T05:27:07;-0.50;99.90
26691;DHT22;14307;51.718;8.938;2023-03-11T05:29:36;-0.60;99.90
26691;DHT22;14307;51.718;8.938;2023-03-11T05:32:05;-0.50;99.90
26691;DHT22;14307;51.718;8.938;2023-03-11T05:34:32;-0.50;99.90
26691;DHT22;14307;51.718;8.938;2023-03-11T05:36:59;-0.60;99.90
26691;DHT22;14307;51.718;8.938;2023-03-11T05:39:29;-0.60;99.90
26691;DHT22;14307;51.718;8.938;2023-03-11T05:41:56;-0.60;99.90
26691;DHT22;14307;51.718;8.938;2023-03-11T05:44:24;-0.60;99.90
26691;DHT22;14307;51.718;8.938;2023-03-11T05:46:51;-0.70;99.90
26691;DHT22;14307;51.718;8.938;2023-03-11T05:49:17;-0.60;99.90
26691;DHT22;14307;51.718;8.938;2023-03-11T05:51:49;-0.60;99.90
26691;DHT22;14307;51.718;8.938;2023-03-11T05:54:16;-0.60;99.90
26691;DHT22;14307;51.718;8.938;2023-03-11T05:56:46;-0.60;99.90
26691;DHT22;14307;51.718;8.938;2023-03-11T05:59:15;-0.60;99.90
26691;DHT22;14307;51.718;8.938;2023-03-11T06:01:44;-0.50;99.90
26691;DHT22;14307;51.718;8.938;2023-03-11T06:04:11;-0.60;99.90
26691;DHT22;14307;51.718;8.938;2023-03-11T06:06:39;-0.60;99.90
26691;DHT22;14307;51.718;8.938;2023-03-11T06:09:11;-0.60;99.90
26691;DHT22;14307;51.718;8.938;2023-03-11T06:11:38;-0.60;99.90
26691;DHT22;14307;51.718;8.938;2023-03-11T06:14:05;-0.60;99.90
26691;DHT22;14307;51.718;8.938;2023-03-11T06:16:32;-0.60;99.90
26691;DHT22;14307;51.718;8.938;2023-03-11T06:19:01;-0.60;99.90
26691;DHT22;14307;51.718;8.938;2023-03-11T06:21:32;-0.60;99.90
26691;DHT22;14307;51.718;8.938;2023-03-11T06:23:59;-0.60;99.90
26691;DHT22;14307;51.718;8.938;2023-03-11T06:26:27;-0.60;99.90
26691;DHT22;14307;51.718;8.938;2023-03-11T06:28:54;-0.60;99.90
26691;DHT22;14307;51.718;8.938;2023-03-11T06:31:26;-0.60;99.90
26691;DHT22;14307;51.718;8.938;2023-03-11T06:33:57;-0.60;99.90
26691;DHT22;14307;51.718;8.938;2023-03-11T06:36:25;-0.50;99.90
26691;DHT22;14307;51.718;8.938;2023-03-11T06:38:53;-0.50;99.90
26691;DHT22;14307;51.718;8.938;2023-03-11T06:41:22;-0.50;99.90
26691;DHT22;14307;51.718;8.938;2023-03-11T06:43:49;-0.50;99.90
26691;DHT22;14307;51.718;8.938;2023-03-11T06:46:19;-0.50;99.90
26691;DHT22;14307;51.718;8.938;2023-03-11T06:48:46;-0.50;99.90
26691;DHT22;14307;51.718;8.938;2023-03-11T06:51:15;-0.40;99.90
26691;DHT22;14307;51.718;8.938;2023-03-11T06:53:42;-0.40;99.90
26691;DHT22;14307;51.718;8.938;2023-03-11T06:56:11;-0.40;99.90
26691;DHT22;14307;51.718;8.938;2023-03-11T06:58:46;-0.40;99.90
26691;DHT22;14307;51.718;8.938;2023-03-11T07:01:20;-0.30;99.90
26691;DHT22;14307;51.718;8.938;2023-03-11T07:03:49;-0.30;99.90
26691;DHT22;14307;51.718;8.938;2023-03-11T07:06:18;-0.30;99.90
26691;DHT22;14307;51.718;8.938;2023-03-11T07:08:46;-0.30;99.90
26691;DHT22;14307;51.718;8.938;2023-03-11T07:11:19;-0.20;99.90
26691;DHT22;14307;51.718;8.938;2023-03-11T07:13:49;-0.20;99.90
26691;DHT22;14307;51.718;8.938;2023-03-11T07:16:19;-0.20;99.90
26691;DHT22;14307;51.718;8.938;2023-03-11T07:18:48;-0.30;99.90
26691;DHT22;14307;51.718;8.938;2023-03-11T07:21:20;-0.30;99.90
26691;DHT22;14307;51.718;8.938;2023-03-11T07:23:48;-0.20;99.90
26691;DHT22;14307;51.718;8.938;2023-03-11T07:26:17;-0.30;99.90
26691;DHT22;14307;51.718;8.938;2023-03-11T07:28:44;-0.10;99.90
26691;DHT22;14307;51.718;8.938;2023-03-11T07:31:13;-0.10;99.90
26691;DHT22;14307;51.718;8.938;2023-03-11T07:33:41;0.00;99.90
26691;DHT22;14307;51.718;8.938;2023-03-11T07:36:10;0.10;99.90
26691;DHT22;14307;51.718;8.938;2023-03-11T07:38:38;0.00;99.90
26691;DHT22;14307;51.718;8.938;2023-03-11T07:41:07;-0.10;99.90
26691;DHT22;14307;51.718;8.938;2023-03-11T07:43:34;0.00;99.90
26691;DHT22;14307;51.718;8.938;2023-03-11T07:46:13;0.00;99.90
26691;DHT22;14307;51.718;8.938;2023-03-11T07:48:41;0.10;99.90
26691;DHT22;14307;51.718;8.938;2023-03-11T07:51:23;0.10;99.90
26691;DHT22;14307;51.718;8.938;2023-03-11T07:53:52;0.00;99.90
26691;DHT22;14307;51.718;8.938;2023-03-11T07:56:21;0.10;99.90
26691;DHT22;14307;51.718;8.938;2023-03-11T07:58:49;0.10;99.90
26691;DHT22;14307;51.718;8.938;2023-03-11T08:01:20;0.00;99.90
26691;DHT22;14307;51.718;8.938;2023-03-11T08:03:49;0.00;99.90
26691;DHT22;14307;51.718;8.938;2023-03-11T08:06:20;0.00;99.90
26691;DHT22;14307;51.718;8.938;2023-03-11T08:08:48;0.00;99.90
26691;DHT22;14307;51.718;8.938;2023-03-11T08:11:15;0.00;99.90
26691;DHT22;14307;51.718;8.938;2023-03-11T08:13:45;0.10;99.90
26691;DHT22;14307;51.718;8.938;2023-03-11T08:16:19;0.10;99.90
26691;DHT22;14307;51.718;8.938;2023-03-11T08:18:47;0.10;99.90
26691;DHT22;14307;51.718;8.938;2023-03-11T08:21:17;0.10;99.90
26691;DHT22;14307;51.718;8.938;2023-03-11T08:23:44;0.10;99.90
26691;DHT22;14307;51.718;8.938;2023-03-11T08:26:16;0.10;99.90
26691;DHT22;14307;51.718;8.938;2023-03-11T08:28:43;0.10;99.90
26691;DHT22;14307;51.718;8.938;2023-03-11T08:31:18;0.10;99.90
26691;DHT22;14307;51.718;8.938;2023-03-11T08:33:47;0.20;99.90
26691;DHT22;14307;51.718;8.938;2023-03-11T08:36:18;0.30;99.90
26691;DHT22;14307;51.718;8.938;2023-03-11T08:38:45;0.30;99.90
26691;DHT22;14307;51.718;8.938;2023-03-11T08:41:12;0.30;99.90
26691;DHT22;14307;51.718;8.938;2023-03-11T08:43:39;0.20;99.90
26691;DHT22;14307;51.718;8.938;2023-03-11T08:46:07;0.40;99.90
26691;DHT22;14307;51.718;8.938;2023-03-11T08:48:35;0.50;99.90
26691;DHT22;14307;51.718;8.938;2023-03-11T08:51:11;0.60;99.90
26691;DHT22;14307;51.718;8.938;2023-03-11T08:53:39;0.60;99.90
26691;DHT22;14307;51.718;8.938;2023-03-11T08:56:07;0.60;99.90
26691;DHT22;14307;51.718;8.938;2023-03-11T08:58:34;0.70;99.90
26691;DHT22;14307;51.718;8.938;2023-03-11T09:01:01;0.80;99.90
26691;DHT22;14307;51.718;8.938;2023-03-11T09:03:30;0.90;99.90
26691;DHT22;14307;51.718;8.938;2023-03-11T09:06:04;0.90;99.90
26691;DHT22;14307;51.718;8.938;2023-03-11T09:08:32;1.10;99.90
26691;DHT22;14307;51.718;8.938;2023-03-11T09:10:59;1.10;99.90
26691;DHT22;14307;51.718;8.938;2023-03-11T09:13:26;1.20;99.90
26691;DHT22;14307;51.718;8.938;2023-03-11T09:15:53;1.60;99.90
26691;DHT22;14307;51.718;8.938;2023-03-11T09:18:20;1.60;99.90
26691;DHT22;14307;51.718;8.938;2023-03-11T09:20:47;1.70;99.90
26691;DHT22;14307;51.718;8.938;2023-03-11T09:23:16;1.70;99.90
26691;DHT22;14307;51.718;8.938;2023-03-11T09:25:43;1.60;99.90
26691;DHT22;14307;51.718;8.938;2023-03-11T09:28:10;1.90;99.90
26691;DHT22;14307;51.718;8.938;2023-03-11T09:30:37;2.00;99.90
26691;DHT22;14307;51.718;8.938;2023-03-11T09:33:03;2.20;99.90
26691;DHT22;14307;51.718;8.938;2023-03-11T09:35:30;2.40;99.90
26691;DHT22;14307;51.718;8.938;2023-03-11T09:37:57;2.30;99.90
26691;DHT22;14307;51.718;8.938;2023-03-11T09:40:25;2.30;99.90
26691;DHT22;14307;51.718;8.938;2023-03-11T09:45:46;2.00;99.90
26691;DHT22;14307;51.718;8.938;2023-03-11T09:50:59;2.20;99.90
26691;DHT22;14307;51.718;8.938;2023-03-11T09:53:41;2.40;99.90
26691;DHT22;14307;51.718;8.938;2023-03-11T09:56:15;2.80;99.90
26691;DHT22;14307;51.718;8.938;2023-03-11T10:01:22;3.20;99.90
26691;DHT22;14307;51.718;8.938;2023-03-11T10:03:51;3.50;99.90
26691;DHT22;14307;51.718;8.938;2023-03-11T10:06:25;3.40;99.90
26691;DHT22;14307;51.718;8.938;2023-03-11T10:14:55;3.50;99.90
26691;DHT22;14307;51.718;8.938;2023-03-11T10:17:54;3.50;99.90
26691;DHT22;14307;51.718;8.938;2023-03-11T10:26:02;4.00;99.90
26691;DHT22;14307;51.718;8.938;2023-03-11T10:28:36;3.80;99.90
26691;DHT22;14307;51.718;8.938;2023-03-11T10:31:34;3.60;99.90
26691;DHT22;14307;51.718;8.938;2023-03-11T10:39:33;4.00;99.90
26691;DHT22;14307;51.718;8.938;2023-03-11T10:42:02;3.90;99.90
26691;DHT22;14307;51.718;8.938;2023-03-11T10:44:40;3.80;99.90
26691;DHT22;14307;51.718;8.938;2023-03-11T10:47:19;3.80;99.90
26691;DHT22;14307;51.718;8.938;2023-03-11T10:49:46;3.80;99.90
26691;DHT22;14307;51.718;8.938;2023-03-11T10:52:13;3.90;99.90
26691;DHT22;14307;51.718;8.938;2023-03-11T10:54:43;3.60;99.90
26691;DHT22;14307;51.718;8.938;2023-03-11T10:57:23;3.40;99.90
26691;DHT22;14307;51.718;8.938;2023-03-11T10:59:53;3.60;99.90
26691;DHT22;14307;51.718;8.938;2023-03-11T11:02:37;3.60;99.90
26691;DHT22;14307;51.718;8.938;2023-03-11T11:05:28;3.30;99.90
26691;DHT22;14307;51.718;8.938;2023-03-11T11:08:08;3.40;99.90
26691;DHT22;14307;51.718;8.938;2023-03-11T11:11:02;3.50;99.90
26691;DHT22;14307;51.718;8.938;2023-03-11T11:13:30;3.70;99.90
26691;DHT22;14307;51.718;8.938;2023-03-11T11:16:18;3.90;99.90
26691;DHT22;14307;51.718;8.938;2023-03-11T11:18:49;3.60;99.90
26691;DHT22;14307;51.718;8.938;2023-03-11T11:21:32;3.80;99.90
26691;DHT22;14307;51.718;8.938;2023-03-11T11:24:19;3.90;99.90
26691;DHT22;14307;51.718;8.938;2023-03-11T11:27:05;3.80;99.90
26691;DHT22;14307;51.718;8.938;2023-03-11T11:29:32;3.60;99.90
26691;DHT22;14307;51.718;8.938;2023-03-11T11:34:59;4.10;99.90
26691;DHT22;14307;51.718;8.938;2023-03-11T11:37:28;3.80;99.90
26691;DHT22;14307;51.718;8.938;2023-03-11T11:40:04;4.10;99.90
26691;DHT22;14307;51.718;8.938;2023-03-11T11:42:38;4.10;99.90
26691;DHT22;14307;51.718;8.938;2023-03-11T11:47:40;4.00;99.90
26691;DHT22;14307;51.718;8.938;2023-03-11T11:50:17;4.00;99.90
26691;DHT22;14307;51.718;8.938;2023-03-11T11:52:54;4.10;99.90
26691;DHT22;14307;51.718;8.938;2023-03-11T11:55:27;3.90;99.90
26691;DHT22;14307;51.718;8.938;2023-03-11T11:57:57;3.80;99.90
26691;DHT22;14307;51.718;8.938;2023-03-11T12:05:57;4.00;99.90
26691;DHT22;14307;51.718;8.938;2023-03-11T12:08:27;3.90;99.90
26691;DHT22;14307;51.718;8.938;2023-03-11T12:11:05;4.40;99.90
26691;DHT22;14307;51.718;8.938;2023-03-11T12:16:42;4.60;99.90
26691;DHT22;14307;51.718;8.938;2023-03-11T12:22:07;4.90;99.90
26691;DHT22;14307;51.718;8.938;2023-03-11T12:27:32;4.20;99.90
26691;DHT22;14307;51.718;8.938;2023-03-11T12:30:11;4.10;99.90
26691;DHT22;14307;51.718;8.938;2023-03-11T12:32:47;4.30;99.90
26691;DHT22;14307;51.718;8.938;2023-03-11T12:35:24;4.40;99.90
26691;DHT22;14307;51.718;8.938;2023-03-11T12:38:06;4.20;99.90
26691;DHT22;14307;51.718;8.938;2023-03-11T12:46:00;3.80;99.90
26691;DHT22;14307;51.718;8.938;2023-03-11T12:54:27;4.20;99.90
26691;DHT22;14307;51.718;8.938;2023-03-11T12:56:59;4.40;99.90
26691;DHT22;14307;51.718;8.938;2023-03-11T13:08:26;4.50;99.90
26691;DHT22;14307;51.718;8.938;2023-03-11T13:10:54;4.70;99.90
26691;DHT22;14307;51.718;8.938;2023-03-11T13:13:32;4.80;99.90
26691;DHT22;14307;51.718;8.938;2023-03-11T13:18:42;4.10;99.90
26691;DHT22;14307;51.718;8.938;2023-03-11T13:35:32;3.70;99.90
26691;DHT22;14307;51.718;8.938;2023-03-11T13:40:45;3.90;99.90
26691;DHT22;14307;51.718;8.938;2023-03-11T13:43:19;4.10;99.90
26691;DHT22;14307;51.718;8.938;2023-03-11T13:45:54;4.20;99.90
26691;DHT22;14307;51.718;8.938;2023-03-11T13:48:32;4.10;99.90
26691;DHT22;14307;51.718;8.938;2023-03-11T13:54:23;4.40;99.90
26691;DHT22;14307;51.718;8.938;2023-03-11T13:56:42;4.70;99.90
26691;DHT22;14307;51.718;8.938;2023-03-11T13:59:17;4.70;99.90
26691;DHT22;14307;51.718;8.938;2023-03-11T14:04:35;4.50;99.90
26691;DHT22;14307;51.718;8.938;2023-03-11T14:07:13;4.30;99.90
26691;DHT22;14307;51.718;8.938;2023-03-11T14:09:40;4.20;99.90
26691;DHT22;14307;51.718;8.938;2023-03-11T14:12:07;3.90;99.90
26691;DHT22;14307;51.718;8.938;2023-03-11T14:14:53;4.10;99.90
26691;DHT22;14307;51.718;8.938;2023-03-11T14:17:21;4.40;99.90
26691;DHT22;14307;51.718;8.938;2023-03-11T14:20:05;4.60;99.90
26691;DHT22;14307;51.718;8.938;2023-03-11T14:22:33;4.80;99.90
26691;DHT22;14307;51.718;8.938;2023-03-11T14:25:02;4.90;99.90
26691;DHT22;14307;51.718;8.938;2023-03-11T14:27:31;4.90;99.90
26691;DHT22;14307;51.718;8.938;2023-03-11T14:29:58;4.70;99.90
26691;DHT22;14307;51.718;8.938;2023-03-11T14:34:54;5.00;99.90
26691;DHT22;14307;51.718;8.938;2023-03-11T14:39:51;5.00;99.90
26691;DHT22;14307;51.718;8.938;2023-03-11T14:42:24;4.90;99.90
26691;DHT22;14307;51.718;8.938;2023-03-11T14:44:59;4.90;99.90
26691;DHT22;14307;51.718;8.938;2023-03-11T14:47:54;4.80;99.90
26691;DHT22;14307;51.718;8.938;2023-03-11T14:50:27;5.00;99.90
26691;DHT22;14307;51.718;8.938;2023-03-11T14:52:57;5.10;99.90
26691;DHT22;14307;51.718;8.938;2023-03-11T14:55:28;5.10;99.90
26691;DHT22;14307;51.718;8.938;2023-03-11T14:58:04;5.00;99.90
26691;DHT22;14307;51.718;8.938;2023-03-11T15:00:36;4.90;99.90
26691;DHT22;14307;51.718;8.938;2023-03-11T15:03:22;4.80;99.90
26691;DHT22;14307;51.718;8.938;2023-03-11T15:05:56;4.40;99.90
26691;DHT22;14307;51.718;8.938;2023-03-11T15:08:27;4.60;99.90
26691;DHT22;14307;51.718;8.938;2023-03-11T15:13:38;4.50;99.90
26691;DHT22;14307;51.718;8.938;2023-03-11T15:16:19;4.20;99.90
26691;DHT22;14307;51.718;8.938;2023-03-11T15:18:47;4.20;99.90
26691;DHT22;14307;51.718;8.938;2023-03-11T15:21:16;4.20;99.90
26691;DHT22;14307;51.718;8.938;2023-03-11T15:23:59;4.30;99.90
26691;DHT22;14307;51.718;8.938;2023-03-11T15:26:32;4.30;99.90
26691;DHT22;14307;51.718;8.938;2023-03-11T15:29:13;4.30;99.90
26691;DHT22;14307;51.718;8.938;2023-03-11T15:31:44;4.20;99.90
26691;DHT22;14307;51.718;8.938;2023-03-11T15:36:54;4.10;99.90
26691;DHT22;14307;51.718;8.938;2023-03-11T15:39:41;4.10;99.90
26691;DHT22;14307;51.718;8.938;2023-03-11T15:42:24;4.10;99.90
26691;DHT22;14307;51.718;8.938;2023-03-11T15:45:16;3.90;99.90
26691;DHT22;14307;51.718;8.938;2023-03-11T15:47:44;4.00;99.90
26691;DHT22;14307;51.718;8.938;2023-03-11T15:50:29;3.90;99.90
26691;DHT22;14307;51.718;8.938;2023-03-11T15:53:17;3.80;99.90
26691;DHT22;14307;51.718;8.938;2023-03-11T15:55:45;3.80;99.90
26691;DHT22;14307;51.718;8.938;2023-03-11T15:58:17;3.90;99.90
26691;DHT22;14307;51.718;8.938;2023-03-11T16:00:51;3.80;99.90
26691;DHT22;14307;51.718;8.938;2023-03-11T16:03:18;3.80;99.90
26691;DHT22;14307;51.718;8.938;2023-03-11T16:05:46;3.80;99.90
26691;DHT22;14307;51.718;8.938;2023-03-11T16:08:12;3.80;99.90
26691;DHT22;14307;51.718;8.938;2023-03-11T16:10:40;3.80;99.90
26691;DHT22;14307;51.718;8.938;2023-03-11T16:13:11;3.80;99.90
26691;DHT22;14307;51.718;8.938;2023-03-11T16:15:38;3.70;99.90
26691;DHT22;14307;51.718;8.938;2023-03-11T16:18:06;3.70;99.90
26691;DHT22;14307;51.718;8.938;2023-03-11T16:20:43;3.60;99.90
26691;DHT22;14307;51.718;8.938;2023-03-11T16:23:32;3.70;99.90
26691;DHT22;14307;51.718;8.938;2023-03-11T16:26:16;3.60;99.90
26691;DHT22;14307;51.718;8.938;2023-03-11T16:28:43;3.50;99.90
26691;DHT22;14307;51.718;8.938;2023-03-11T16:31:09;3.40;99.90
26691;DHT22;14307;51.718;8.938;2023-03-11T16:33:36;3.30;99.90
26691;DHT22;14307;51.718;8.938;2023-03-11T16:36:03;3.30;99.90
26691;DHT22;14307;51.718;8.938;2023-03-11T16:38:44;3.30;99.90
26691;DHT22;14307;51.718;8.938;2023-03-11T16:41:11;3.30;99.90
26691;DHT22;14307;51.718;8.938;2023-03-11T16:43:37;3.20;99.90
26691;DHT22;14307;51.718;8.938;2023-03-11T16:46:04;3.20;99.90
26691;DHT22;14307;51.718;8.938;2023-03-11T16:48:31;3.20;99.90
26691;DHT22;14307;51.718;8.938;2023-03-11T16:50:58;3.10;99.90
26691;DHT22;14307;51.718;8.938;2023-03-11T16:53:25;3.00;99.90
26691;DHT22;14307;51.718;8.938;2023-03-11T16:55:52;3.00;99.90
26691;DHT22;14307;51.718;8.938;2023-03-11T16:58:19;2.90;99.90
26691;DHT22;14307;51.718;8.938;2023-03-11T17:00:45;2.90;99.90
26691;DHT22;14307;51.718;8.938;2023-03-11T17:03:14;2.70;99.90
26691;DHT22;14307;51.718;8.938;2023-03-11T17:05:41;2.70;99.90
26691;DHT22;14307;51.718;8.938;2023-03-11T17:08:08;2.70;99.90
26691;DHT22;14307;51.718;8.938;2023-03-11T17:10:41;2.50;99.90
26691;DHT22;14307;51.718;8.938;2023-03-11T17:13:10;2.40;99.90
26691;DHT22;14307;51.718;8.938;2023-03-11T17:15:37;2.30;99.90
26691;DHT22;14307;51.718;8.938;2023-03-11T17:18:04;2.30;99.90
26691;DHT22;14307;51.718;8.938;2023-03-11T17:20:32;2.10;99.90
26691;DHT22;14307;51.718;8.938;2023-03-11T17:22:59;2.00;99.90
26691;DHT22;14307;51.718;8.938;2023-03-11T17:25:26;1.90;99.90
26691;DHT22;14307;51.718;8.938;2023-03-11T17:27:53;1.90;99.90
26691;DHT22;14307;51.718;8.938;2023-03-11T17:30:20;1.80;99.90
26691;DHT22;14307;51.718;8.938;2023-03-11T17:33:02;1.80;99.90
26691;DHT22;14307;51.718;8.938;2023-03-11T17:35:28;1.70;99.90
26691;DHT22;14307;51.718;8.938;2023-03-11T17:37:55;1.60;99.90
26691;DHT22;14307;51.718;8.938;2023-03-11T17:40:22;1.60;99.90
26691;DHT22;14307;51.718;8.938;2023-03-11T17:42:48;1.50;99.90